메인 페이지
METAR-TAF:

METAR-TAF

공항 :

도지시티, 캔자스, 미국

위도: 37-46-22N, 경도: 099-58-11W, 고도: 790m

현재 날씨관측

예보는 59분 전, 17:52시(UTC)에 발표되었습니다.
9kt
온도 12°C
습도 32%
기압 1026 hPa
시정: 16.1km
맑음

METAR: KDDC 161752Z AUTO 35009KT 10SM CLR 12/M04 A3030 RMK AO2 SLP270 T01171039 10117 21033 50009

시각: 12:51 (18:51 UTC)

예보

예보는 1 시간 26분 전, 17:25시(UTC)에 발표되었습니다.
예보 대상 시간: 16일 18시부터 17일 18시까지 (UTC)
여러 방향의 바람 6kt
시정: 10km
맑음

TAF: KDDC 161725Z 1618/1718 VRB06KT P6SM SKC

4,000개 이상의 공항 관측 자료 및 예보 (METAR 및 TAF 보고).

지도상에서 검색 가능한 기상관측소가 노란 점과 빨간 점으로 표시되어 있습니다.

기상관측소 명을 보려면 표시 위로 마우스를 이동하세요.

날씨 관측과 예보를 보려면 클릭하세요.

지도 변경 : 확대하려면 엑스 표시가 있는 녹색 버튼, 축소하려면 빼기 표시가 있는 녹색 버튼, 다음 페이지의 지도를 보려면 녹색 화살표를 클릭하세요.


METAR-TAF: